sensor_id;sensor_type;location;lat;lon;timestamp;temperature;humidity
12386;DHT22;6257;57.634;18.310;2022-09-02T00:01:11;11.30;99.90
12386;DHT22;6257;57.634;18.310;2022-09-02T00:03:38;11.30;99.90
12386;DHT22;6257;57.634;18.310;2022-09-02T00:06:05;11.30;99.90
12386;DHT22;6257;57.634;18.310;2022-09-02T00:08:32;11.30;99.90
12386;DHT22;6257;57.634;18.310;2022-09-02T00:11:01;11.30;99.90
12386;DHT22;6257;57.634;18.310;2022-09-02T00:13:32;11.40;99.90
12386;DHT22;6257;57.634;18.310;2022-09-02T00:15:59;11.40;99.90
12386;DHT22;6257;57.634;18.310;2022-09-02T00:18:26;11.40;99.90
12386;DHT22;6257;57.634;18.310;2022-09-02T00:20:53;11.40;99.90
12386;DHT22;6257;57.634;18.310;2022-09-02T00:23:20;11.40;99.90
12386;DHT22;6257;57.634;18.310;2022-09-02T00:25:47;11.50;99.90
12386;DHT22;6257;57.634;18.310;2022-09-02T00:28:16;11.60;99.90
12386;DHT22;6257;57.634;18.310;2022-09-02T00:30:44;11.70;99.90
12386;DHT22;6257;57.634;18.310;2022-09-02T00:33:12;11.80;99.90
12386;DHT22;6257;57.634;18.310;2022-09-02T00:35:39;11.80;99.90
12386;DHT22;6257;57.634;18.310;2022-09-02T00:38:07;11.80;99.90
12386;DHT22;6257;57.634;18.310;2022-09-02T00:40:35;11.80;99.90
12386;DHT22;6257;57.634;18.310;2022-09-02T00:43:06;11.80;99.90
12386;DHT22;6257;57.634;18.310;2022-09-02T00:45:35;11.80;99.90
12386;DHT22;6257;57.634;18.310;2022-09-02T00:48:03;11.90;99.90
12386;DHT22;6257;57.634;18.310;2022-09-02T00:50:34;11.80;99.90
12386;DHT22;6257;57.634;18.310;2022-09-02T00:53:04;11.80;99.90
12386;DHT22;6257;57.634;18.310;2022-09-02T00:55:35;11.90;99.90
12386;DHT22;6257;57.634;18.310;2022-09-02T00:58:06;11.90;99.90
12386;DHT22;6257;57.634;18.310;2022-09-02T01:00:39;12.00;99.90
12386;DHT22;6257;57.634;18.310;2022-09-02T01:03:10;12.00;99.90
12386;DHT22;6257;57.634;18.310;2022-09-02T01:05:42;11.90;99.90
12386;DHT22;6257;57.634;18.310;2022-09-02T01:08:10;11.90;99.90
12386;DHT22;6257;57.634;18.310;2022-09-02T01:10:38;11.90;99.90
12386;DHT22;6257;57.634;18.310;2022-09-02T01:13:08;11.90;99.90
12386;DHT22;6257;57.634;18.310;2022-09-02T01:15:40;12.00;99.90
12386;DHT22;6257;57.634;18.310;2022-09-02T01:18:12;12.10;99.90
12386;DHT22;6257;57.634;18.310;2022-09-02T01:20:40;12.10;99.90
12386;DHT22;6257;57.634;18.310;2022-09-02T01:23:09;12.10;99.90
12386;DHT22;6257;57.634;18.310;2022-09-02T01:25:37;12.10;99.90
12386;DHT22;6257;57.634;18.310;2022-09-02T01:28:07;12.10;99.90
12386;DHT22;6257;57.634;18.310;2022-09-02T01:30:36;12.10;99.90
12386;DHT22;6257;57.634;18.310;2022-09-02T01:33:04;12.10;99.90
12386;DHT22;6257;57.634;18.310;2022-09-02T01:35:31;12.10;99.90
12386;DHT22;6257;57.634;18.310;2022-09-02T01:37:59;12.10;99.90
12386;DHT22;6257;57.634;18.310;2022-09-02T01:40:29;12.00;99.90
12386;DHT22;6257;57.634;18.310;2022-09-02T01:42:59;12.00;99.90
12386;DHT22;6257;57.634;18.310;2022-09-02T01:45:27;12.00;99.90
12386;DHT22;6257;57.634;18.310;2022-09-02T01:47:55;12.00;99.90
12386;DHT22;6257;57.634;18.310;2022-09-02T01:50:22;12.00;99.90
12386;DHT22;6257;57.634;18.310;2022-09-02T01:52:49;12.00;99.90
12386;DHT22;6257;57.634;18.310;2022-09-02T01:55:16;12.00;99.90
12386;DHT22;6257;57.634;18.310;2022-09-02T01:57:45;12.00;99.90
12386;DHT22;6257;57.634;18.310;2022-09-02T02:00:14;12.00;99.90
12386;DHT22;6257;57.634;18.310;2022-09-02T02:02:42;12.00;99.90
12386;DHT22;6257;57.634;18.310;2022-09-02T02:05:09;12.00;99.90
12386;DHT22;6257;57.634;18.310;2022-09-02T02:07:36;12.00;99.90
12386;DHT22;6257;57.634;18.310;2022-09-02T02:10:04;12.00;99.90
12386;DHT22;6257;57.634;18.310;2022-09-02T02:12:32;12.00;99.90
12386;DHT22;6257;57.634;18.310;2022-09-02T02:15:02;12.00;99.90
12386;DHT22;6257;57.634;18.310;2022-09-02T02:17:30;12.00;99.90
12386;DHT22;6257;57.634;18.310;2022-09-02T02:19:57;11.90;99.90
12386;DHT22;6257;57.634;18.310;2022-09-02T02:22:24;11.90;99.90
12386;DHT22;6257;57.634;18.310;2022-09-02T02:24:52;11.90;99.90
12386;DHT22;6257;57.634;18.310;2022-09-02T02:27:20;11.80;99.90
12386;DHT22;6257;57.634;18.310;2022-09-02T02:29:47;11.80;99.90
12386;DHT22;6257;57.634;18.310;2022-09-02T02:32:15;11.80;99.90
12386;DHT22;6257;57.634;18.310;2022-09-02T02:34:43;11.80;99.90
12386;DHT22;6257;57.634;18.310;2022-09-02T02:37:10;11.80;99.90
12386;DHT22;6257;57.634;18.310;2022-09-02T02:39:38;11.80;99.90
12386;DHT22;6257;57.634;18.310;2022-09-02T02:42:05;11.80;99.90
12386;DHT22;6257;57.634;18.310;2022-09-02T02:44:32;11.80;99.90
12386;DHT22;6257;57.634;18.310;2022-09-02T02:47:00;11.80;99.90
12386;DHT22;6257;57.634;18.310;2022-09-02T02:49:28;11.80;99.90
12386;DHT22;6257;57.634;18.310;2022-09-02T02:51:55;11.80;99.90
12386;DHT22;6257;57.634;18.310;2022-09-02T02:54:22;11.70;99.90
12386;DHT22;6257;57.634;18.310;2022-09-02T02:56:50;11.70;99.90
12386;DHT22;6257;57.634;18.310;2022-09-02T02:59:17;11.70;99.90
12386;DHT22;6257;57.634;18.310;2022-09-02T03:01:44;11.80;99.90
12386;DHT22;6257;57.634;18.310;2022-09-02T03:04:11;11.80;99.90
12386;DHT22;6257;57.634;18.310;2022-09-02T03:06:39;11.80;99.90
12386;DHT22;6257;57.634;18.310;2022-09-02T03:09:06;11.80;99.90
12386;DHT22;6257;57.634;18.310;2022-09-02T03:11:33;11.90;99.90
12386;DHT22;6257;57.634;18.310;2022-09-02T03:14:01;11.80;99.90
12386;DHT22;6257;57.634;18.310;2022-09-02T03:16:28;11.80;99.90
12386;DHT22;6257;57.634;18.310;2022-09-02T03:18:55;11.90;99.90
12386;DHT22;6257;57.634;18.310;2022-09-02T03:21:22;11.80;99.90
12386;DHT22;6257;57.634;18.310;2022-09-02T03:23:50;11.80;99.90
12386;DHT22;6257;57.634;18.310;2022-09-02T03:26:20;11.90;99.90
12386;DHT22;6257;57.634;18.310;2022-09-02T03:28:48;11.90;99.90
12386;DHT22;6257;57.634;18.310;2022-09-02T03:31:18;11.90;99.90
12386;DHT22;6257;57.634;18.310;2022-09-02T03:33:45;12.00;99.90
12386;DHT22;6257;57.634;18.310;2022-09-02T03:36:20;12.00;99.90
12386;DHT22;6257;57.634;18.310;2022-09-02T03:38:49;12.00;99.90
12386;DHT22;6257;57.634;18.310;2022-09-02T03:41:16;12.00;99.90
12386;DHT22;6257;57.634;18.310;2022-09-02T03:43:43;12.00;99.90
12386;DHT22;6257;57.634;18.310;2022-09-02T03:46:10;12.00;99.90
12386;DHT22;6257;57.634;18.310;2022-09-02T03:48:38;12.00;99.90
12386;DHT22;6257;57.634;18.310;2022-09-02T03:51:06;12.00;99.90
12386;DHT22;6257;57.634;18.310;2022-09-02T03:53:34;12.00;99.90
12386;DHT22;6257;57.634;18.310;2022-09-02T03:56:05;12.00;99.90
12386;DHT22;6257;57.634;18.310;2022-09-02T03:58:33;11.90;99.90
12386;DHT22;6257;57.634;18.310;2022-09-02T04:01:01;11.90;99.90
12386;DHT22;6257;57.634;18.310;2022-09-02T04:03:28;11.70;99.90
12386;DHT22;6257;57.634;18.310;2022-09-02T04:05:56;11.70;99.90
12386;DHT22;6257;57.634;18.310;2022-09-02T04:08:24;11.50;99.90
12386;DHT22;6257;57.634;18.310;2022-09-02T04:10:51;11.40;99.90
12386;DHT22;6257;57.634;18.310;2022-09-02T04:13:22;11.30;99.90
12386;DHT22;6257;57.634;18.310;2022-09-02T04:15:49;11.30;99.90
12386;DHT22;6257;57.634;18.310;2022-09-02T04:18:16;11.30;99.90
12386;DHT22;6257;57.634;18.310;2022-09-02T04:20:44;11.30;99.90
12386;DHT22;6257;57.634;18.310;2022-09-02T04:23:11;11.30;99.90
12386;DHT22;6257;57.634;18.310;2022-09-02T04:25:39;11.20;99.90
12386;DHT22;6257;57.634;18.310;2022-09-02T04:28:07;11.20;99.90
12386;DHT22;6257;57.634;18.310;2022-09-02T04:30:38;11.20;99.90
12386;DHT22;6257;57.634;18.310;2022-09-02T04:33:05;11.20;99.90
12386;DHT22;6257;57.634;18.310;2022-09-02T04:35:32;11.30;99.90
12386;DHT22;6257;57.634;18.310;2022-09-02T04:38:00;11.40;99.90
12386;DHT22;6257;57.634;18.310;2022-09-02T04:40:28;11.60;99.90
12386;DHT22;6257;57.634;18.310;2022-09-02T04:42:55;11.70;99.90
12386;DHT22;6257;57.634;18.310;2022-09-02T04:45:23;11.80;99.90
12386;DHT22;6257;57.634;18.310;2022-09-02T04:47:51;11.90;99.90
12386;DHT22;6257;57.634;18.310;2022-09-02T04:50:18;12.00;99.90
12386;DHT22;6257;57.634;18.310;2022-09-02T04:52:45;12.10;99.90
12386;DHT22;6257;57.634;18.310;2022-09-02T04:55:12;12.20;99.90
12386;DHT22;6257;57.634;18.310;2022-09-02T04:57:39;12.30;99.90
12386;DHT22;6257;57.634;18.310;2022-09-02T05:00:08;12.30;99.90
12386;DHT22;6257;57.634;18.310;2022-09-02T05:02:35;12.30;99.90
12386;DHT22;6257;57.634;18.310;2022-09-02T05:05:04;12.40;99.90
12386;DHT22;6257;57.634;18.310;2022-09-02T05:07:34;12.30;99.90
12386;DHT22;6257;57.634;18.310;2022-09-02T05:10:02;12.20;99.90
12386;DHT22;6257;57.634;18.310;2022-09-02T05:12:30;12.10;99.90
12386;DHT22;6257;57.634;18.310;2022-09-02T05:14:58;11.90;99.90
12386;DHT22;6257;57.634;18.310;2022-09-02T05:17:26;11.80;99.90
12386;DHT22;6257;57.634;18.310;2022-09-02T05:19:54;11.70;99.90
12386;DHT22;6257;57.634;18.310;2022-09-02T05:22:22;11.70;99.90
12386;DHT22;6257;57.634;18.310;2022-09-02T05:24:50;11.70;99.90
12386;DHT22;6257;57.634;18.310;2022-09-02T05:27:17;11.80;99.90
12386;DHT22;6257;57.634;18.310;2022-09-02T05:29:45;11.90;99.90
12386;DHT22;6257;57.634;18.310;2022-09-02T05:32:12;12.20;99.90
12386;DHT22;6257;57.634;18.310;2022-09-02T05:34:39;12.50;99.90
12386;DHT22;6257;57.634;18.310;2022-09-02T05:37:06;12.80;99.90
12386;DHT22;6257;57.634;18.310;2022-09-02T05:39:34;13.10;99.90
12386;DHT22;6257;57.634;18.310;2022-09-02T05:42:01;13.30;99.90
12386;DHT22;6257;57.634;18.310;2022-09-02T05:44:28;13.40;99.90
12386;DHT22;6257;57.634;18.310;2022-09-02T05:46:56;13.50;99.90
12386;DHT22;6257;57.634;18.310;2022-09-02T05:49:23;13.50;99.90
12386;DHT22;6257;57.634;18.310;2022-09-02T05:51:53;13.50;99.90
12386;DHT22;6257;57.634;18.310;2022-09-02T05:54:22;13.50;99.90
12386;DHT22;6257;57.634;18.310;2022-09-02T05:56:53;13.50;99.90
12386;DHT22;6257;57.634;18.310;2022-09-02T05:59:20;13.50;99.90
12386;DHT22;6257;57.634;18.310;2022-09-02T06:01:48;13.40;99.90
12386;DHT22;6257;57.634;18.310;2022-09-02T06:04:16;13.30;99.90
12386;DHT22;6257;57.634;18.310;2022-09-02T06:06:43;13.40;99.90
12386;DHT22;6257;57.634;18.310;2022-09-02T06:09:12;13.40;99.90
12386;DHT22;6257;57.634;18.310;2022-09-02T06:11:41;13.40;99.90
12386;DHT22;6257;57.634;18.310;2022-09-02T06:14:10;13.50;99.90
12386;DHT22;6257;57.634;18.310;2022-09-02T06:16:40;13.50;99.90
12386;DHT22;6257;57.634;18.310;2022-09-02T06:19:08;13.50;99.90
12386;DHT22;6257;57.634;18.310;2022-09-02T06:21:36;13.50;99.90
12386;DHT22;6257;57.634;18.310;2022-09-02T06:24:04;13.50;99.90
12386;DHT22;6257;57.634;18.310;2022-09-02T06:26:32;13.50;99.90
12386;DHT22;6257;57.634;18.310;2022-09-02T06:28:59;13.50;99.90
12386;DHT22;6257;57.634;18.310;2022-09-02T06:31:28;13.60;99.90
12386;DHT22;6257;57.634;18.310;2022-09-02T06:33:56;13.60;99.90
12386;DHT22;6257;57.634;18.310;2022-09-02T06:36:26;13.60;99.90
12386;DHT22;6257;57.634;18.310;2022-09-02T06:38:55;13.60;99.90
12386;DHT22;6257;57.634;18.310;2022-09-02T06:41:25;13.60;99.90
12386;DHT22;6257;57.634;18.310;2022-09-02T06:43:54;13.70;99.90
12386;DHT22;6257;57.634;18.310;2022-09-02T06:46:24;13.70;99.90
12386;DHT22;6257;57.634;18.310;2022-09-02T06:48:53;13.60;99.90
12386;DHT22;6257;57.634;18.310;2022-09-02T06:51:21;13.60;99.90
12386;DHT22;6257;57.634;18.310;2022-09-02T06:53:48;13.60;99.90
12386;DHT22;6257;57.634;18.310;2022-09-02T06:56:15;13.60;99.90
12386;DHT22;6257;57.634;18.310;2022-09-02T06:58:43;13.70;99.90
12386;DHT22;6257;57.634;18.310;2022-09-02T07:01:17;13.80;99.90
12386;DHT22;6257;57.634;18.310;2022-09-02T07:03:44;13.80;99.90
12386;DHT22;6257;57.634;18.310;2022-09-02T07:06:32;13.90;99.90
12386;DHT22;6257;57.634;18.310;2022-09-02T07:09:01;13.90;99.90
12386;DHT22;6257;57.634;18.310;2022-09-02T07:11:28;14.00;99.90
12386;DHT22;6257;57.634;18.310;2022-09-02T07:13:55;13.90;99.90
12386;DHT22;6257;57.634;18.310;2022-09-02T07:16:25;13.90;99.90
12386;DHT22;6257;57.634;18.310;2022-09-02T07:18:52;14.00;99.90
12386;DHT22;6257;57.634;18.310;2022-09-02T07:21:19;14.00;99.90
12386;DHT22;6257;57.634;18.310;2022-09-02T07:23:47;14.10;99.90
12386;DHT22;6257;57.634;18.310;2022-09-02T07:26:16;14.10;99.90
12386;DHT22;6257;57.634;18.310;2022-09-02T07:28:43;14.10;99.90
12386;DHT22;6257;57.634;18.310;2022-09-02T07:31:13;14.10;99.90
12386;DHT22;6257;57.634;18.310;2022-09-02T07:33:41;14.10;99.90
12386;DHT22;6257;57.634;18.310;2022-09-02T07:36:10;14.10;99.90
12386;DHT22;6257;57.634;18.310;2022-09-02T07:38:38;14.20;99.90
12386;DHT22;6257;57.634;18.310;2022-09-02T07:41:08;14.10;99.90
12386;DHT22;6257;57.634;18.310;2022-09-02T07:43:36;14.10;99.90
12386;DHT22;6257;57.634;18.310;2022-09-02T07:46:04;14.30;99.90
12386;DHT22;6257;57.634;18.310;2022-09-02T07:48:32;14.50;99.90
12386;DHT22;6257;57.634;18.310;2022-09-02T07:51:00;14.50;99.90
12386;DHT22;6257;57.634;18.310;2022-09-02T07:53:28;14.60;99.90
12386;DHT22;6257;57.634;18.310;2022-09-02T07:55:56;14.70;99.90
12386;DHT22;6257;57.634;18.310;2022-09-02T07:58:26;14.70;99.90
12386;DHT22;6257;57.634;18.310;2022-09-02T08:00:53;14.70;99.90
12386;DHT22;6257;57.634;18.310;2022-09-02T08:03:22;14.90;99.90
12386;DHT22;6257;57.634;18.310;2022-09-02T08:05:49;15.00;99.90
12386;DHT22;6257;57.634;18.310;2022-09-02T08:08:17;15.30;99.90
12386;DHT22;6257;57.634;18.310;2022-09-02T08:10:45;15.80;99.90
12386;DHT22;6257;57.634;18.310;2022-09-02T08:13:13;16.30;99.90
12386;DHT22;6257;57.634;18.310;2022-09-02T08:15:43;16.50;99.90
12386;DHT22;6257;57.634;18.310;2022-09-02T08:18:10;16.60;99.90
12386;DHT22;6257;57.634;18.310;2022-09-02T08:20:37;16.90;99.90
12386;DHT22;6257;57.634;18.310;2022-09-02T08:23:05;17.60;99.90
12386;DHT22;6257;57.634;18.310;2022-09-02T08:25:33;18.20;99.90
12386;DHT22;6257;57.634;18.310;2022-09-02T08:28:01;18.80;99.90
12386;DHT22;6257;57.634;18.310;2022-09-02T08:30:28;18.90;99.90
12386;DHT22;6257;57.634;18.310;2022-09-02T08:32:57;19.00;99.90
12386;DHT22;6257;57.634;18.310;2022-09-02T08:35:24;18.70;99.90
12386;DHT22;6257;57.634;18.310;2022-09-02T08:37:52;18.80;99.90
12386;DHT22;6257;57.634;18.310;2022-09-02T08:40:22;18.90;99.90
12386;DHT22;6257;57.634;18.310;2022-09-02T08:42:52;19.00;99.90
12386;DHT22;6257;57.634;18.310;2022-09-02T08:45:22;19.20;99.90
12386;DHT22;6257;57.634;18.310;2022-09-02T08:47:57;19.00;99.90
12386;DHT22;6257;57.634;18.310;2022-09-02T08:50:30;18.00;99.90
12386;DHT22;6257;57.634;18.310;2022-09-02T08:53:02;17.10;99.90
12386;DHT22;6257;57.634;18.310;2022-09-02T08:55:35;16.30;99.90
12386;DHT22;6257;57.634;18.310;2022-09-02T08:58:05;15.80;99.90
12386;DHT22;6257;57.634;18.310;2022-09-02T09:00:37;15.50;99.90
12386;DHT22;6257;57.634;18.310;2022-09-02T09:03:16;15.30;99.90
12386;DHT22;6257;57.634;18.310;2022-09-02T09:05:51;15.20;99.90
12386;DHT22;6257;57.634;18.310;2022-09-02T09:08:23;15.20;99.90
12386;DHT22;6257;57.634;18.310;2022-09-02T09:10:59;15.00;99.90
12386;DHT22;6257;57.634;18.310;2022-09-02T09:13:42;15.00;99.90
12386;DHT22;6257;57.634;18.310;2022-09-02T09:16:21;15.00;99.90
12386;DHT22;6257;57.634;18.310;2022-09-02T09:18:58;14.90;99.90
12386;DHT22;6257;57.634;18.310;2022-09-02T09:21:26;15.00;99.90
12386;DHT22;6257;57.634;18.310;2022-09-02T09:23:56;14.90;99.90
12386;DHT22;6257;57.634;18.310;2022-09-02T09:26:27;14.80;99.90
12386;DHT22;6257;57.634;18.310;2022-09-02T09:28:55;14.70;99.90
12386;DHT22;6257;57.634;18.310;2022-09-02T09:31:28;14.50;99.90
12386;DHT22;6257;57.634;18.310;2022-09-02T09:33:59;14.50;99.90
12386;DHT22;6257;57.634;18.310;2022-09-02T09:36:50;14.70;99.90
12386;DHT22;6257;57.634;18.310;2022-09-02T09:39:29;14.50;99.90
12386;DHT22;6257;57.634;18.310;2022-09-02T09:41:57;14.50;99.90
12386;DHT22;6257;57.634;18.310;2022-09-02T09:44:34;14.50;99.90
12386;DHT22;6257;57.634;18.310;2022-09-02T09:47:05;14.50;99.90
12386;DHT22;6257;57.634;18.310;2022-09-02T09:49:34;14.60;99.90
12386;DHT22;6257;57.634;18.310;2022-09-02T09:52:02;14.70;99.90
12386;DHT22;6257;57.634;18.310;2022-09-02T09:54:30;14.90;99.90
12386;DHT22;6257;57.634;18.310;2022-09-02T09:57:13;14.90;99.90
12386;DHT22;6257;57.634;18.310;2022-09-02T09:59:43;14.80;99.90
12386;DHT22;6257;57.634;18.310;2022-09-02T10:02:22;14.80;99.90
12386;DHT22;6257;57.634;18.310;2022-09-02T10:04:52;14.90;99.90
12386;DHT22;6257;57.634;18.310;2022-09-02T10:07:35;15.00;99.90
12386;DHT22;6257;57.634;18.310;2022-09-02T10:10:18;15.00;99.90
12386;DHT22;6257;57.634;18.310;2022-09-02T10:12:48;15.00;99.90
12386;DHT22;6257;57.634;18.310;2022-09-02T10:15:21;14.90;99.90
12386;DHT22;6257;57.634;18.310;2022-09-02T10:17:56;15.00;99.90
12386;DHT22;6257;57.634;18.310;2022-09-02T10:20:42;15.20;99.90
12386;DHT22;6257;57.634;18.310;2022-09-02T10:23:29;15.40;99.90
12386;DHT22;6257;57.634;18.310;2022-09-02T10:26:05;15.40;99.90
12386;DHT22;6257;57.634;18.310;2022-09-02T10:28:49;15.20;99.90
12386;DHT22;6257;57.634;18.310;2022-09-02T10:31:24;15.40;99.90
12386;DHT22;6257;57.634;18.310;2022-09-02T10:34:07;15.60;99.90
12386;DHT22;6257;57.634;18.310;2022-09-02T10:36:50;15.80;99.90
12386;DHT22;6257;57.634;18.310;2022-09-02T10:39:25;15.90;99.90
12386;DHT22;6257;57.634;18.310;2022-09-02T10:42:01;15.60;99.90
12386;DHT22;6257;57.634;18.310;2022-09-02T10:44:40;15.10;99.90
12386;DHT22;6257;57.634;18.310;2022-09-02T10:47:18;14.90;99.90
12386;DHT22;6257;57.634;18.310;2022-09-02T10:50:02;14.50;99.90
12386;DHT22;6257;57.634;18.310;2022-09-02T10:52:49;14.50;99.90
12386;DHT22;6257;57.634;18.310;2022-09-02T10:55:26;14.40;99.90
12386;DHT22;6257;57.634;18.310;2022-09-02T10:58:01;14.50;99.90
12386;DHT22;6257;57.634;18.310;2022-09-02T11:00:30;14.50;99.90
12386;DHT22;6257;57.634;18.310;2022-09-02T11:03:06;14.50;99.90
12386;DHT22;6257;57.634;18.310;2022-09-02T11:05:40;14.50;99.90
12386;DHT22;6257;57.634;18.310;2022-09-02T11:08:13;14.50;99.90
12386;DHT22;6257;57.634;18.310;2022-09-02T11:10:53;14.40;99.90
12386;DHT22;6257;57.634;18.310;2022-09-02T11:13:27;14.40;99.90
12386;DHT22;6257;57.634;18.310;2022-09-02T11:16:02;14.40;99.90
12386;DHT22;6257;57.634;18.310;2022-09-02T11:18:34;14.30;99.90
12386;DHT22;6257;57.634;18.310;2022-09-02T11:21:22;14.40;99.90
12386;DHT22;6257;57.634;18.310;2022-09-02T11:23:58;14.30;99.90
12386;DHT22;6257;57.634;18.310;2022-09-02T11:26:29;14.30;99.90
12386;DHT22;6257;57.634;18.310;2022-09-02T11:29:04;14.30;99.90
12386;DHT22;6257;57.634;18.310;2022-09-02T11:31:37;14.40;99.90
12386;DHT22;6257;57.634;18.310;2022-09-02T11:34:16;14.50;99.90
12386;DHT22;6257;57.634;18.310;2022-09-02T11:36:45;14.70;99.90
12386;DHT22;6257;57.634;18.310;2022-09-02T11:39:18;14.70;99.90
12386;DHT22;6257;57.634;18.310;2022-09-02T11:44:57;15.10;99.90
12386;DHT22;6257;57.634;18.310;2022-09-02T11:47:59;15.10;99.90
12386;DHT22;6257;57.634;18.310;2022-09-02T11:51:02;15.00;99.90
12386;DHT22;6257;57.634;18.310;2022-09-02T11:53:37;15.00;99.90
12386;DHT22;6257;57.634;18.310;2022-09-02T11:56:11;14.90;99.90
12386;DHT22;6257;57.634;18.310;2022-09-02T11:58:41;14.80;99.90
12386;DHT22;6257;57.634;18.310;2022-09-02T12:01:22;14.50;99.90
12386;DHT22;6257;57.634;18.310;2022-09-02T12:03:56;14.30;99.90
12386;DHT22;6257;57.634;18.310;2022-09-02T12:06:24;14.10;99.90
12386;DHT22;6257;57.634;18.310;2022-09-02T12:09:09;14.00;99.90
12386;DHT22;6257;57.634;18.310;2022-09-02T12:11:49;14.10;99.90
12386;DHT22;6257;57.634;18.310;2022-09-02T12:17:36;14.20;99.90
12386;DHT22;6257;57.634;18.310;2022-09-02T12:20:05;14.20;99.90
12386;DHT22;6257;57.634;18.310;2022-09-02T12:22:37;14.10;99.90
12386;DHT22;6257;57.634;18.310;2022-09-02T12:25:33;14.10;99.90
12386;DHT22;6257;57.634;18.310;2022-09-02T12:28:22;14.20;99.90
12386;DHT22;6257;57.634;18.310;2022-09-02T12:31:15;14.30;99.90
12386;DHT22;6257;57.634;18.310;2022-09-02T12:33:46;14.30;99.90
12386;DHT22;6257;57.634;18.310;2022-09-02T12:36:44;14.30;99.90
12386;DHT22;6257;57.634;18.310;2022-09-02T12:42:20;14.30;99.90
12386;DHT22;6257;57.634;18.310;2022-09-02T12:44:57;14.20;99.90
12386;DHT22;6257;57.634;18.310;2022-09-02T12:47:34;14.30;99.90
12386;DHT22;6257;57.634;18.310;2022-09-02T12:50:06;14.30;99.90
12386;DHT22;6257;57.634;18.310;2022-09-02T12:52:47;14.20;99.90
12386;DHT22;6257;57.634;18.310;2022-09-02T12:55:21;14.20;99.90
12386;DHT22;6257;57.634;18.310;2022-09-02T12:57:51;14.30;99.90
12386;DHT22;6257;57.634;18.310;2022-09-02T13:00:32;14.50;99.90
12386;DHT22;6257;57.634;18.310;2022-09-02T13:03:23;14.60;99.90
12386;DHT22;6257;57.634;18.310;2022-09-02T13:06:02;14.50;99.90
12386;DHT22;6257;57.634;18.310;2022-09-02T13:09:00;14.50;99.90
12386;DHT22;6257;57.634;18.310;2022-09-02T13:12:05;14.50;99.90
12386;DHT22;6257;57.634;18.310;2022-09-02T13:14:53;14.40;99.90
12386;DHT22;6257;57.634;18.310;2022-09-02T13:17:35;14.30;99.90
12386;DHT22;6257;57.634;18.310;2022-09-02T13:23:29;14.30;99.90
12386;DHT22;6257;57.634;18.310;2022-09-02T13:26:12;14.30;99.90
12386;DHT22;6257;57.634;18.310;2022-09-02T13:29:04;14.20;99.90
12386;DHT22;6257;57.634;18.310;2022-09-02T13:31:37;14.20;99.90
12386;DHT22;6257;57.634;18.310;2022-09-02T13:34:10;14.20;99.90
12386;DHT22;6257;57.634;18.310;2022-09-02T13:36:43;14.30;99.90
12386;DHT22;6257;57.634;18.310;2022-09-02T13:39:15;14.30;99.90
12386;DHT22;6257;57.634;18.310;2022-09-02T13:41:42;14.30;99.90
12386;DHT22;6257;57.634;18.310;2022-09-02T13:44:12;14.30;99.90
12386;DHT22;6257;57.634;18.310;2022-09-02T13:46:44;14.30;99.90
12386;DHT22;6257;57.634;18.310;2022-09-02T13:49:22;14.30;99.90
12386;DHT22;6257;57.634;18.310;2022-09-02T13:51:52;14.30;99.90
12386;DHT22;6257;57.634;18.310;2022-09-02T13:54:33;14.30;99.90
12386;DHT22;6257;57.634;18.310;2022-09-02T13:57:04;14.40;99.90
12386;DHT22;6257;57.634;18.310;2022-09-02T13:59:37;14.40;99.90
12386;DHT22;6257;57.634;18.310;2022-09-02T14:02:20;14.30;99.90
12386;DHT22;6257;57.634;18.310;2022-09-02T14:04:52;14.30;99.90
12386;DHT22;6257;57.634;18.310;2022-09-02T14:07:25;14.30;99.90
12386;DHT22;6257;57.634;18.310;2022-09-02T14:09:52;14.20;99.90
12386;DHT22;6257;57.634;18.310;2022-09-02T14:12:20;14.30;99.90
12386;DHT22;6257;57.634;18.310;2022-09-02T14:14:48;14.20;99.90
12386;DHT22;6257;57.634;18.310;2022-09-02T14:17:20;14.20;99.90
12386;DHT22;6257;57.634;18.310;2022-09-02T14:19:49;12.60;99.90
12386;DHT22;6257;57.634;18.310;2022-09-02T14:22:25;14.20;99.90
12386;DHT22;6257;57.634;18.310;2022-09-02T14:24:52;14.30;99.90
12386;DHT22;6257;57.634;18.310;2022-09-02T14:27:21;14.30;99.90
12386;DHT22;6257;57.634;18.310;2022-09-02T14:29:53;14.30;99.90
12386;DHT22;6257;57.634;18.310;2022-09-02T14:32:22;14.20;99.90
12386;DHT22;6257;57.634;18.310;2022-09-02T14:35:10;14.20;99.90
12386;DHT22;6257;57.634;18.310;2022-09-02T14:37:49;14.20;99.90
12386;DHT22;6257;57.634;18.310;2022-09-02T14:40:30;14.20;99.90
12386;DHT22;6257;57.634;18.310;2022-09-02T14:42:58;14.20;99.90
12386;DHT22;6257;57.634;18.310;2022-09-02T14:45:27;14.20;99.90
12386;DHT22;6257;57.634;18.310;2022-09-02T14:47:58;14.10;99.90
12386;DHT22;6257;57.634;18.310;2022-09-02T14:50:28;14.10;99.90
12386;DHT22;6257;57.634;18.310;2022-09-02T14:53:00;14.10;99.90
12386;DHT22;6257;57.634;18.310;2022-09-02T14:55:45;14.10;99.90
12386;DHT22;6257;57.634;18.310;2022-09-02T14:58:13;14.10;99.90
12386;DHT22;6257;57.634;18.310;2022-09-02T15:00:42;14.10;99.90
12386;DHT22;6257;57.634;18.310;2022-09-02T15:03:13;14.20;99.90
12386;DHT22;6257;57.634;18.310;2022-09-02T15:05:42;14.10;99.90
12386;DHT22;6257;57.634;18.310;2022-09-02T15:08:09;14.00;99.90
12386;DHT22;6257;57.634;18.310;2022-09-02T15:10:36;14.00;99.90
12386;DHT22;6257;57.634;18.310;2022-09-02T15:13:06;14.00;99.90
12386;DHT22;6257;57.634;18.310;2022-09-02T15:15:37;14.00;99.90
12386;DHT22;6257;57.634;18.310;2022-09-02T15:18:04;14.00;99.90
12386;DHT22;6257;57.634;18.310;2022-09-02T15:20:31;13.60;99.90
12386;DHT22;6257;57.634;18.310;2022-09-02T15:23:00;13.90;99.90
12386;DHT22;6257;57.634;18.310;2022-09-02T15:25:27;13.90;99.90
12386;DHT22;6257;57.634;18.310;2022-09-02T15:27:54;13.90;99.90
12386;DHT22;6257;57.634;18.310;2022-09-02T15:30:21;13.90;99.90
12386;DHT22;6257;57.634;18.310;2022-09-02T15:32:49;13.80;99.90
12386;DHT22;6257;57.634;18.310;2022-09-02T15:35:16;13.80;99.90
12386;DHT22;6257;57.634;18.310;2022-09-02T15:37:43;13.80;99.90
12386;DHT22;6257;57.634;18.310;2022-09-02T15:40:12;13.80;99.90
12386;DHT22;6257;57.634;18.310;2022-09-02T15:42:39;13.70;99.90
12386;DHT22;6257;57.634;18.310;2022-09-02T15:45:07;13.80;99.90
12386;DHT22;6257;57.634;18.310;2022-09-02T15:47:35;13.70;99.90
12386;DHT22;6257;57.634;18.310;2022-09-02T15:50:03;13.80;99.90
12386;DHT22;6257;57.634;18.310;2022-09-02T15:52:32;13.70;99.90
12386;DHT22;6257;57.634;18.310;2022-09-02T15:54:59;13.70;99.90
12386;DHT22;6257;57.634;18.310;2022-09-02T15:57:28;13.70;99.90
12386;DHT22;6257;57.634;18.310;2022-09-02T15:59:55;13.60;99.90
12386;DHT22;6257;57.634;18.310;2022-09-02T16:02:22;13.60;99.90
12386;DHT22;6257;57.634;18.310;2022-09-02T16:04:49;13.50;99.90
12386;DHT22;6257;57.634;18.310;2022-09-02T16:07:16;13.50;99.90